createdAt,value
2023-03-07T00:01:35.223Z,43.47
2023-03-07T00:07:44.180Z,40.23
2023-03-07T00:10:13.602Z,37.67
2023-03-07T00:12:43.049Z,40.53
2023-03-07T00:15:13.542Z,39.70
2023-03-07T00:17:42.233Z,39.67
2023-03-07T00:20:14.599Z,37.60
2023-03-07T00:22:43.713Z,40.07
2023-03-07T00:25:12.814Z,41.87
2023-03-07T00:27:41.383Z,42.07
2023-03-07T00:30:12.835Z,40.87
2023-03-07T00:32:43.371Z,40.07
2023-03-07T00:35:12.469Z,40.87
2023-03-07T00:37:41.006Z,42.40
2023-03-07T00:40:11.252Z,56.03
2023-03-07T00:42:39.824Z,74.20
2023-03-07T00:45:09.537Z,54.80
2023-03-07T00:47:38.099Z,45.03
2023-03-07T00:50:08.724Z,42.20
2023-03-07T00:52:37.218Z,43.33
2023-03-07T00:55:06.110Z,42.23
2023-03-07T00:57:34.519Z,37.87
2023-03-07T01:00:03.071Z,41.40
2023-03-07T01:02:31.466Z,44.23
2023-03-07T01:04:59.850Z,46.43
2023-03-07T01:07:30.179Z,42.90
2023-03-07T01:09:58.696Z,43.83
2023-03-07T01:12:27.136Z,46.00
2023-03-07T01:14:55.926Z,46.73
2023-03-07T01:17:25.603Z,42.13
2023-03-07T01:19:54.228Z,42.80
2023-03-07T01:22:22.734Z,51.97
2023-03-07T01:24:52.562Z,43.53
2023-03-07T01:27:21.142Z,49.20
2023-03-07T01:29:49.755Z,40.93
2023-03-07T01:32:18.226Z,248.47
2023-03-07T01:34:46.708Z,187.17
2023-03-07T01:37:15.173Z,64.53
2023-03-07T01:39:44.026Z,47.57
2023-03-07T01:42:13.952Z,63.93
2023-03-07T01:45:02.285Z,57.40
2023-03-07T01:47:30.833Z,54.23
2023-03-07T01:50:01.292Z,52.20
2023-03-07T01:52:34.130Z,51.23
2023-03-07T01:55:06.789Z,57.50
2023-03-07T01:57:40.877Z,66.03
2023-03-07T02:00:18.893Z,73.60
2023-03-07T02:02:53.262Z,82.77
2023-03-07T02:05:25.551Z,95.73
2023-03-07T02:07:55.642Z,120.30
2023-03-07T02:10:25.134Z,127.90
2023-03-07T02:12:55.980Z,108.27
2023-03-07T02:15:25.216Z,108.07
2023-03-07T02:17:54.526Z,68.07
2023-03-07T02:20:35.294Z,54.17
2023-03-07T02:23:05.156Z,52.23
2023-03-07T02:25:41.350Z,54.07
2023-03-07T02:28:15.188Z,53.53
2023-03-07T02:30:55.516Z,52.93
2023-03-07T02:33:25.432Z,54.93
2023-03-07T02:35:58.750Z,54.13
2023-03-07T02:38:28.473Z,51.97
2023-03-07T02:40:58.283Z,50.27
2023-03-07T02:43:28.449Z,47.30
2023-03-07T02:45:57.292Z,52.83
2023-03-07T02:48:26.169Z,52.67
2023-03-07T02:50:54.796Z,51.93
2023-03-07T02:53:28.968Z,59.90
2023-03-07T02:55:57.705Z,62.17
2023-03-07T02:58:27.735Z,73.20
2023-03-07T03:00:56.318Z,76.30
2023-03-07T03:03:24.895Z,78.00
2023-03-07T03:05:53.589Z,79.73
2023-03-07T03:08:22.106Z,65.70
2023-03-07T03:10:54.567Z,68.43
2023-03-07T03:13:25.905Z,79.10
2023-03-07T03:15:58.975Z,64.17
2023-03-07T03:18:29.919Z,59.97
2023-03-07T03:20:58.678Z,69.73
2023-03-07T03:23:29.155Z,59.77
2023-03-07T03:26:02.028Z,58.77
2023-03-07T03:28:30.562Z,57.60
2023-03-07T03:31:01.931Z,70.07
2023-03-07T03:33:31.186Z,80.63
2023-03-07T03:36:00.888Z,120.20
2023-03-07T03:38:29.544Z,145.70
2023-03-07T03:40:57.986Z,138.87
2023-03-07T03:43:26.717Z,114.43
2023-03-07T03:45:59.612Z,102.60
2023-03-07T03:48:29.984Z,88.37
2023-03-07T03:51:06.360Z,73.27
2023-03-07T03:53:36.173Z,86.17
2023-03-07T03:56:07.479Z,73.10
2023-03-07T03:58:36.990Z,81.63
2023-03-07T04:01:08.926Z,105.87
2023-03-07T04:03:41.012Z,102.53
2023-03-07T04:06:13.988Z,122.20
2023-03-07T04:08:42.759Z,148.67
2023-03-07T04:11:11.500Z,127.77
2023-03-07T04:13:40.190Z,122.83
2023-03-07T04:16:09.323Z,154.47
2023-03-07T04:18:40.565Z,133.83
2023-03-07T04:21:10.135Z,115.13
2023-03-07T04:23:39.440Z,83.07
2023-03-07T04:26:09.858Z,107.40
2023-03-07T04:28:46.099Z,84.50
2023-03-07T04:31:16.621Z,71.13
2023-03-07T04:33:47.253Z,63.77
2023-03-07T04:36:17.681Z,97.93
2023-03-07T04:38:46.603Z,120.37
2023-03-07T04:41:16.366Z,87.13
2023-03-07T04:43:45.331Z,82.50
2023-03-07T04:46:15.778Z,78.67
2023-03-07T04:48:46.027Z,74.77
2023-03-07T04:51:14.597Z,75.00
2023-03-07T04:53:43.211Z,74.43
2023-03-07T04:56:12.982Z,70.47
2023-03-07T04:58:41.694Z,80.30
2023-03-07T05:01:10.315Z,75.43
2023-03-07T05:03:39.968Z,64.43
2023-03-07T05:06:14.432Z,54.20
2023-03-07T05:08:42.981Z,44.17
2023-03-07T05:11:11.581Z,46.47
2023-03-07T05:13:40.318Z,44.57
2023-03-07T05:16:09.532Z,44.67
2023-03-07T05:18:38.046Z,41.63
2023-03-07T05:21:06.851Z,39.10
2023-03-07T05:23:36.818Z,39.00
2023-03-07T05:26:05.668Z,42.27
2023-03-07T05:28:34.589Z,36.77
2023-03-07T05:31:03.131Z,34.13
2023-03-07T05:33:31.937Z,32.20
2023-03-07T05:36:01.677Z,35.33
2023-03-07T05:38:30.148Z,31.97
2023-03-07T05:41:00.017Z,36.30
2023-03-07T05:43:28.841Z,32.70
2023-03-07T05:45:57.427Z,34.17
2023-03-07T05:48:26.039Z,36.03
2023-03-07T05:50:54.680Z,32.47
2023-03-07T05:53:23.211Z,31.37
2023-03-07T05:55:51.717Z,34.63
2023-03-07T05:58:24.531Z,31.47
2023-03-07T06:00:52.963Z,30.77
2023-03-07T06:03:21.563Z,29.43
2023-03-07T06:05:51.216Z,34.17
2023-03-07T06:08:20.092Z,30.03
2023-03-07T06:10:51.309Z,31.13
2023-03-07T06:13:25.335Z,32.53
2023-03-07T06:15:54.997Z,30.53
2023-03-07T06:18:25.056Z,35.90
2023-03-07T06:20:58.890Z,33.63
2023-03-07T06:23:28.115Z,31.40
2023-03-07T06:25:56.859Z,33.90
2023-03-07T06:28:26.910Z,32.97
2023-03-07T06:30:55.617Z,32.73
2023-03-07T06:33:24.692Z,30.43
2023-03-07T06:35:53.388Z,28.97
2023-03-07T06:38:21.929Z,31.20
2023-03-07T06:40:57.422Z,30.40
2023-03-07T06:43:27.805Z,32.03
2023-03-07T06:45:56.866Z,30.57
2023-03-07T06:48:26.055Z,30.03
2023-03-07T06:50:54.597Z,28.63
2023-03-07T06:53:23.131Z,28.90
2023-03-07T06:55:51.701Z,28.30
2023-03-07T06:58:20.690Z,32.47
2023-03-07T07:00:53.576Z,27.87
2023-03-07T07:03:22.784Z,27.83
2023-03-07T07:05:51.605Z,33.17
2023-03-07T07:08:20.266Z,35.00
2023-03-07T07:10:48.782Z,32.47
2023-03-07T07:13:17.256Z,31.20
2023-03-07T07:15:45.732Z,29.40
2023-03-07T07:18:15.871Z,37.20
2023-03-07T07:20:44.383Z,32.13
2023-03-07T07:23:12.809Z,31.50
2023-03-07T07:25:41.330Z,30.10
2023-03-07T07:28:09.722Z,25.03
2023-03-07T07:30:38.722Z,28.00
2023-03-07T07:33:07.323Z,27.83
2023-03-07T07:35:39.093Z,30.50
2023-03-07T07:38:07.715Z,31.20
2023-03-07T07:40:37.596Z,26.97
2023-03-07T07:43:06.359Z,27.13
2023-03-07T07:45:35.094Z,28.10
2023-03-07T07:48:03.705Z,27.50
2023-03-07T07:50:34.718Z,32.30
2023-03-07T07:53:04.982Z,27.13
2023-03-07T07:55:33.601Z,26.47
2023-03-07T07:58:02.113Z,25.80
2023-03-07T08:00:32.940Z,28.03
2023-03-07T08:03:01.785Z,29.37
2023-03-07T08:05:30.354Z,26.27
2023-03-07T08:07:59.481Z,25.60
2023-03-07T08:10:31.786Z,28.07
2023-03-07T08:13:01.479Z,25.40
2023-03-07T08:15:30.493Z,25.93
2023-03-07T08:18:00.334Z,26.67
2023-03-07T08:20:29.097Z,23.97
2023-03-07T08:22:57.623Z,25.40
2023-03-07T08:25:26.770Z,28.23
2023-03-07T08:27:58.417Z,29.57
2023-03-07T08:30:29.067Z,27.07
2023-03-07T08:32:58.673Z,31.97
2023-03-07T08:35:29.878Z,31.33
2023-03-07T08:38:00.097Z,27.57
2023-03-07T08:40:33.223Z,21.67
2023-03-07T08:43:06.461Z,20.90
2023-03-07T08:45:34.965Z,22.77
2023-03-07T08:48:03.610Z,19.60
2023-03-07T08:50:32.132Z,18.30
2023-03-07T08:53:01.426Z,18.20
2023-03-07T08:55:30.080Z,13.73
2023-03-07T08:57:59.017Z,17.27
2023-03-07T09:00:29.206Z,17.43
2023-03-07T09:02:58.622Z,15.20
2023-03-07T09:05:27.542Z,16.77
2023-03-07T09:07:56.557Z,14.10
2023-03-07T09:10:27.604Z,13.57
2023-03-07T09:12:56.610Z,21.00
2023-03-07T09:15:25.783Z,16.57
2023-03-07T09:17:55.774Z,13.73
2023-03-07T09:20:27.180Z,13.97
2023-03-07T09:22:55.926Z,16.30
2023-03-07T09:25:24.572Z,14.83
2023-03-07T09:27:55.412Z,14.03
2023-03-07T09:30:25.586Z,15.43
2023-03-07T09:32:56.008Z,15.73
2023-03-07T09:35:24.707Z,19.43
2023-03-07T09:37:53.478Z,14.73
2023-03-07T09:40:25.569Z,13.87
2023-03-07T09:43:05.928Z,14.57
2023-03-07T09:45:46.230Z,15.33
2023-03-07T09:48:48.175Z,16.00
2023-03-07T09:51:20.188Z,14.10
2023-03-07T09:53:54.265Z,12.63
2023-03-07T09:56:27.604Z,12.03
2023-03-07T09:59:06.661Z,12.03
2023-03-07T10:01:45.976Z,12.07
2023-03-07T10:04:23.366Z,10.87
2023-03-07T10:06:58.444Z,12.57
2023-03-07T10:09:29.450Z,11.43
2023-03-07T10:12:21.568Z,14.43
2023-03-07T10:15:13.578Z,11.27
2023-03-07T10:18:07.101Z,11.33
2023-03-07T10:20:46.310Z,13.90
2023-03-07T10:23:33.531Z,12.17
2023-03-07T10:26:10.189Z,12.30
2023-03-07T10:28:42.701Z,14.13
2023-03-07T10:31:22.781Z,10.23
2023-03-07T10:33:54.925Z,19.03
2023-03-07T10:36:36.534Z,29.40
2023-03-07T10:39:11.425Z,16.00
2023-03-07T10:41:40.350Z,55.30
2023-03-07T10:44:17.955Z,79.77
2023-03-07T10:46:55.907Z,13.20
2023-03-07T10:49:29.017Z,10.87
2023-03-07T10:52:03.336Z,10.63
2023-03-07T10:54:34.330Z,13.43
2023-03-07T10:57:08.425Z,10.60
2023-03-07T10:59:38.179Z,10.20
2023-03-07T11:02:32.328Z,11.93
2023-03-07T11:05:01.104Z,12.73
2023-03-07T11:07:34.755Z,10.10
2023-03-07T11:10:25.397Z,10.07
2023-03-07T11:12:53.944Z,9.20
2023-03-07T11:15:26.017Z,9.13
2023-03-07T11:17:55.635Z,9.57
2023-03-07T11:20:29.163Z,10.17
2023-03-07T11:23:17.094Z,11.03
2023-03-07T11:25:46.316Z,9.90
2023-03-07T11:28:31.564Z,9.23
2023-03-07T11:31:12.410Z,9.07
2023-03-07T11:34:00.064Z,12.17
2023-03-07T11:36:32.612Z,8.90
2023-03-07T11:39:08.727Z,8.37
2023-03-07T11:41:39.119Z,9.93
2023-03-07T11:44:27.554Z,14.13
2023-03-07T11:47:13.117Z,9.80
2023-03-07T11:49:46.975Z,9.30
2023-03-07T11:52:34.210Z,11.97
2023-03-07T11:55:17.144Z,20.50
2023-03-07T11:57:59.409Z,17.67
2023-03-07T12:00:35.560Z,10.77
2023-03-07T12:03:41.101Z,9.50
2023-03-07T12:06:35.224Z,10.00
2023-03-07T12:09:22.317Z,9.43
2023-03-07T12:12:09.378Z,8.43
2023-03-07T12:14:48.530Z,11.03
2023-03-07T12:17:30.451Z,8.67
2023-03-07T12:20:22.697Z,10.50
2023-03-07T12:23:04.999Z,8.20
2023-03-07T12:25:38.602Z,10.60
2023-03-07T12:28:15.100Z,7.07
2023-03-07T12:30:56.375Z,9.37
2023-03-07T12:33:32.582Z,7.47
2023-03-07T12:36:05.570Z,7.57
2023-03-07T12:38:41.231Z,10.27
2023-03-07T12:41:23.494Z,7.97
2023-03-07T12:43:59.328Z,7.83
2023-03-07T12:46:39.132Z,8.47
2023-03-07T12:49:17.648Z,8.30
2023-03-07T12:51:51.257Z,8.70
2023-03-07T12:54:24.394Z,7.00
2023-03-07T12:56:58.680Z,8.10
2023-03-07T12:59:29.302Z,7.17
2023-03-07T13:02:04.065Z,7.37
2023-03-07T13:04:35.598Z,6.97
2023-03-07T13:07:11.019Z,6.63
2023-03-07T13:09:43.018Z,7.53
2023-03-07T13:12:27.370Z,7.97
2023-03-07T13:14:58.932Z,7.30
2023-03-07T13:18:01.678Z,6.13
2023-03-07T13:20:47.355Z,10.27
2023-03-07T13:23:29.905Z,7.50
2023-03-07T13:26:05.122Z,6.83
2023-03-07T13:28:45.660Z,9.03
2023-03-07T13:31:52.736Z,6.47
2023-03-07T13:34:51.877Z,6.90
2023-03-07T13:38:03.986Z,6.90
2023-03-07T13:40:55.194Z,8.03
2023-03-07T13:44:00.232Z,7.37
2023-03-07T13:47:02.813Z,8.93
2023-03-07T13:49:46.074Z,8.60
2023-03-07T13:52:44.580Z,6.20
2023-03-07T13:55:29.101Z,10.00
2023-03-07T13:58:02.277Z,7.50
2023-03-07T14:00:39.139Z,6.73
2023-03-07T14:03:26.516Z,8.03
2023-03-07T14:05:57.900Z,13.93
2023-03-07T14:08:31.605Z,6.73
2023-03-07T14:11:02.343Z,8.80
2023-03-07T14:14:15.812Z,10.40
2023-03-07T14:17:03.179Z,8.37
2023-03-07T14:19:45.257Z,7.60
2023-03-07T14:22:25.227Z,11.80
2023-03-07T14:25:14.484Z,6.97
2023-03-07T14:27:56.387Z,6.77
2023-03-07T14:30:26.885Z,7.63
2023-03-07T14:32:55.491Z,6.67
2023-03-07T14:35:42.117Z,7.07
2023-03-07T14:38:17.439Z,8.23
2023-03-07T14:41:04.914Z,7.43
2023-03-07T14:43:48.222Z,7.50
2023-03-07T14:46:28.741Z,7.67
2023-03-07T14:49:08.386Z,8.27
2023-03-07T14:51:40.853Z,11.47
2023-03-07T14:54:16.263Z,11.97
2023-03-07T14:56:45.478Z,34.13
2023-03-07T14:59:27.805Z,28.87
2023-03-07T15:01:57.650Z,13.50
2023-03-07T15:04:29.434Z,20.10
2023-03-07T15:07:00.584Z,153.00
2023-03-07T15:09:30.754Z,194.80
2023-03-07T15:12:06.230Z,25.97
2023-03-07T15:14:45.894Z,10.60
2023-03-07T15:17:19.337Z,14.03
2023-03-07T15:19:54.333Z,11.93
2023-03-07T15:22:28.003Z,11.93
2023-03-07T15:24:58.596Z,20.67
2023-03-07T15:27:32.190Z,11.97
2023-03-07T15:30:10.128Z,47.13
2023-03-07T15:32:42.101Z,13.97
2023-03-07T15:35:21.688Z,15.77
2023-03-07T15:37:56.719Z,19.80
2023-03-07T15:40:35.396Z,11.63
2023-03-07T15:43:26.753Z,15.10
2023-03-07T15:46:07.042Z,13.80
2023-03-07T15:48:42.333Z,12.27
2023-03-07T15:51:19.545Z,10.53
2023-03-07T15:53:59.636Z,10.33
2023-03-07T15:56:48.012Z,11.93
2023-03-07T15:59:32.260Z,10.20
2023-03-07T16:02:42.685Z,9.80
2023-03-07T16:05:36.325Z,9.40
2023-03-07T16:08:13.047Z,9.83
2023-03-07T16:10:51.876Z,12.03
2023-03-07T16:13:28.308Z,10.37
2023-03-07T16:16:06.353Z,14.33
2023-03-07T16:18:36.826Z,9.50
2023-03-07T16:21:06.652Z,11.93
2023-03-07T16:23:35.437Z,13.17
2023-03-07T16:26:06.291Z,19.50
2023-03-07T16:28:35.878Z,25.70
2023-03-07T16:31:04.470Z,38.00
2023-03-07T16:33:32.963Z,30.47
2023-03-07T16:36:03.030Z,13.77
2023-03-07T16:38:31.797Z,11.43
2023-03-07T16:41:03.838Z,11.07
2023-03-07T16:43:35.810Z,9.03
2023-03-07T16:46:07.104Z,9.43
2023-03-07T16:48:36.466Z,7.90
2023-03-07T16:51:07.505Z,7.30
2023-03-07T16:53:36.100Z,7.23
2023-03-07T16:56:04.783Z,7.43
2023-03-07T16:58:36.338Z,10.77
2023-03-07T17:01:06.000Z,7.70
2023-03-07T17:03:38.491Z,9.40
2023-03-07T17:06:08.905Z,8.23
2023-03-07T17:08:37.856Z,8.60
2023-03-07T17:11:07.291Z,7.87
2023-03-07T17:13:35.984Z,8.70
2023-03-07T17:16:04.913Z,9.10
2023-03-07T17:18:34.208Z,9.00
2023-03-07T17:21:02.744Z,9.77
2023-03-07T17:23:33.183Z,13.20
2023-03-07T17:26:01.909Z,12.27
2023-03-07T17:28:30.932Z,12.33
2023-03-07T17:30:59.537Z,12.40
2023-03-07T17:33:28.071Z,13.57
2023-03-07T17:35:58.447Z,13.30
2023-03-07T17:38:27.187Z,13.77
2023-03-07T17:40:58.438Z,9.37
2023-03-07T17:43:27.332Z,10.50
2023-03-07T17:45:56.402Z,12.53
2023-03-07T17:48:25.555Z,8.00
2023-03-07T17:50:54.355Z,8.07
2023-03-07T17:53:23.046Z,7.50
2023-03-07T17:55:51.945Z,7.20
2023-03-07T17:58:22.075Z,7.87
2023-03-07T18:00:51.185Z,7.47
2023-03-07T18:03:19.945Z,11.50
2023-03-07T18:05:52.651Z,8.87
2023-03-07T18:08:22.185Z,12.20
2023-03-07T18:10:51.359Z,8.17
2023-03-07T18:13:24.431Z,7.27
2023-03-07T18:15:53.195Z,8.60
2023-03-07T18:18:22.033Z,7.90
2023-03-07T18:20:58.477Z,8.10
2023-03-07T18:23:27.520Z,8.57
2023-03-07T18:26:03.948Z,6.47
2023-03-07T18:28:35.294Z,7.00
2023-03-07T18:31:08.637Z,7.70
2023-03-07T18:33:38.406Z,8.60
2023-03-07T18:36:10.838Z,5.10
2023-03-07T18:38:39.882Z,6.30
2023-03-07T18:41:10.820Z,5.77
2023-03-07T18:43:41.903Z,7.00
2023-03-07T18:46:13.021Z,6.67
2023-03-07T18:48:41.924Z,9.27
2023-03-07T18:51:12.334Z,10.47
2023-03-07T18:53:41.643Z,6.30
2023-03-07T18:56:11.773Z,7.73
2023-03-07T18:58:43.240Z,5.43
2023-03-07T19:01:13.802Z,7.77
2023-03-07T19:03:43.065Z,7.40
2023-03-07T19:06:12.510Z,8.63
2023-03-07T19:08:41.487Z,7.27
2023-03-07T19:11:13.337Z,5.20
2023-03-07T19:13:44.379Z,7.57
2023-03-07T19:16:14.440Z,6.63
2023-03-07T19:18:44.004Z,7.37
2023-03-07T19:21:14.552Z,6.33
2023-03-07T19:23:43.634Z,6.37
2023-03-07T19:26:13.763Z,5.57
2023-03-07T19:28:44.092Z,7.70
2023-03-07T19:31:14.601Z,6.27
2023-03-07T19:33:43.335Z,9.07
2023-03-07T19:36:13.332Z,11.37
2023-03-07T19:38:42.450Z,12.70
2023-03-07T19:41:14.493Z,79.67
2023-03-07T19:43:44.968Z,26.83
2023-03-07T19:46:16.230Z,40.60
2023-03-07T19:48:48.080Z,69.03
2023-03-07T19:51:18.259Z,39.23
2023-03-07T19:53:48.100Z,12.80
2023-03-07T19:56:19.672Z,9.47
2023-03-07T19:58:49.781Z,12.53
2023-03-07T20:01:19.933Z,9.80
2023-03-07T20:03:49.518Z,8.27
2023-03-07T20:06:20.045Z,9.40
2023-03-07T20:08:49.560Z,9.70
2023-03-07T20:11:20.449Z,8.43
2023-03-07T20:13:52.402Z,10.33
2023-03-07T20:16:22.235Z,10.07
2023-03-07T20:18:52.426Z,9.60
2023-03-07T20:21:22.729Z,9.67
2023-03-07T20:23:53.195Z,12.13
2023-03-07T20:26:24.223Z,8.77
2023-03-07T20:28:55.028Z,11.23
2023-03-07T20:31:23.824Z,11.33
2023-03-07T20:33:52.948Z,11.30
2023-03-07T20:36:23.459Z,10.83
2023-03-07T20:38:53.782Z,9.53
2023-03-07T20:41:23.828Z,7.83
2023-03-07T20:43:54.821Z,7.67
2023-03-07T20:46:24.260Z,8.77
2023-03-07T20:48:56.129Z,7.70
2023-03-07T20:51:27.293Z,7.47
2023-03-07T20:53:58.284Z,8.33
2023-03-07T20:56:28.239Z,8.70
2023-03-07T20:58:59.020Z,7.57
2023-03-07T21:01:29.868Z,7.53
2023-03-07T21:04:06.253Z,6.93
2023-03-07T21:06:35.168Z,11.33
2023-03-07T21:09:07.192Z,10.17
2023-03-07T21:11:37.386Z,11.20
2023-03-07T21:14:07.316Z,11.77
2023-03-07T21:16:36.251Z,10.13
2023-03-07T21:19:06.786Z,11.27
2023-03-07T21:21:36.970Z,10.73
2023-03-07T21:24:06.325Z,13.37
2023-03-07T21:26:37.057Z,10.10
2023-03-07T21:29:09.178Z,9.13
2023-03-07T21:31:39.007Z,11.07
2023-03-07T21:34:09.223Z,10.63
2023-03-07T21:36:37.774Z,12.13
2023-03-07T21:39:08.176Z,9.50
2023-03-07T21:41:37.165Z,7.37
2023-03-07T21:44:07.542Z,6.70
2023-03-07T21:46:36.145Z,6.30
2023-03-07T21:49:05.966Z,5.77
2023-03-07T21:51:34.611Z,5.83
2023-03-07T21:54:03.459Z,7.03
2023-03-07T21:56:32.229Z,7.37
2023-03-07T21:59:00.758Z,8.60
2023-03-07T22:01:31.203Z,6.20
2023-03-07T22:04:00.721Z,5.17
2023-03-07T22:06:30.064Z,5.30
2023-03-07T22:09:00.278Z,6.67
2023-03-07T22:11:29.225Z,5.93
2023-03-07T22:13:57.979Z,5.37
2023-03-07T22:16:26.680Z,7.00
2023-03-07T22:18:57.914Z,8.53
2023-03-07T22:21:27.094Z,6.60
2023-03-07T22:23:58.336Z,8.37
2023-03-07T22:26:27.771Z,7.53
2023-03-07T22:28:56.889Z,6.43
2023-03-07T22:31:26.184Z,6.93
2023-03-07T22:33:54.797Z,6.33
2023-03-07T22:36:24.703Z,7.03
2023-03-07T22:38:55.704Z,7.40
2023-03-07T22:41:24.966Z,7.97
2023-03-07T22:43:53.883Z,7.93
2023-03-07T22:46:22.692Z,7.47
2023-03-07T22:48:54.136Z,7.13
2023-03-07T22:51:25.430Z,6.47
2023-03-07T22:53:55.157Z,7.10
2023-03-07T22:56:25.146Z,5.47
2023-03-07T22:58:54.304Z,5.93
2023-03-07T23:01:28.523Z,13.93
2023-03-07T23:03:59.050Z,23.30
2023-03-07T23:06:31.710Z,116.53
2023-03-07T23:09:02.363Z,131.00
2023-03-07T23:11:32.591Z,80.83
2023-03-07T23:14:02.008Z,36.30
2023-03-07T23:16:31.958Z,7.13
2023-03-07T23:19:02.369Z,7.47
2023-03-07T23:21:33.953Z,10.27
2023-03-07T23:24:04.378Z,9.40
2023-03-07T23:26:34.967Z,8.50
2023-03-07T23:29:03.986Z,10.13
2023-03-07T23:31:34.515Z,9.20
2023-03-07T23:34:05.319Z,11.73
2023-03-07T23:36:35.439Z,11.73
2023-03-07T23:39:04.010Z,10.97
2023-03-07T23:41:32.524Z,13.90
2023-03-07T23:44:01.856Z,10.97
2023-03-07T23:46:31.507Z,10.73
2023-03-07T23:49:00.267Z,9.33
2023-03-07T23:51:28.752Z,8.80
2023-03-07T23:53:58.712Z,10.30
2023-03-07T23:56:27.547Z,8.53
2023-03-07T23:58:56.131Z,12.83
